sensor_id;sensor_type;location;lat;lon;timestamp;temperature;humidity
72126;SHT31;59999;51.676;22.650;2022-12-29T00:02:20;3.58;76.91
72126;SHT31;59999;51.676;22.650;2022-12-29T00:04:46;3.61;76.65
72126;SHT31;59999;51.676;22.650;2022-12-29T00:07:12;3.55;76.93
72126;SHT31;59999;51.676;22.650;2022-12-29T00:09:37;3.57;76.00
72126;SHT31;59999;51.676;22.650;2022-12-29T00:12:04;3.55;76.45
72126;SHT31;59999;51.676;22.650;2022-12-29T00:14:30;3.57;76.89
72126;SHT31;59999;51.676;22.650;2022-12-29T00:17:15;3.57;76.67
72126;SHT31;59999;51.676;22.650;2022-12-29T00:19:40;3.57;76.31
72126;SHT31;59999;51.676;22.650;2022-12-29T00:22:25;3.58;76.09
72126;SHT31;59999;51.676;22.650;2022-12-29T00:25:11;3.61;76.41
72126;SHT31;59999;51.676;22.650;2022-12-29T00:27:58;3.58;76.25
72126;SHT31;59999;51.676;22.650;2022-12-29T00:30:42;3.58;76.59
72126;SHT31;59999;51.676;22.650;2022-12-29T00:33:32;3.58;76.50
72126;SHT31;59999;51.676;22.650;2022-12-29T00:38:47;3.51;76.53
72126;SHT31;59999;51.676;22.650;2022-12-29T00:41:32;3.55;76.11
72126;SHT31;59999;51.676;22.650;2022-12-29T00:44:17;3.48;76.38
72126;SHT31;59999;51.676;22.650;2022-12-29T00:46:43;3.44;76.63
72126;SHT31;59999;51.676;22.650;2022-12-29T00:49:12;3.46;76.81
72126;SHT31;59999;51.676;22.650;2022-12-29T00:51:58;3.44;76.34
72126;SHT31;59999;51.676;22.650;2022-12-29T00:54:24;3.48;76.61
72126;SHT31;59999;51.676;22.650;2022-12-29T00:56:51;3.47;76.07
72126;SHT31;59999;51.676;22.650;2022-12-29T00:59:18;3.46;76.78
72126;SHT31;59999;51.676;22.650;2022-12-29T01:01:45;3.46;77.00
72126;SHT31;59999;51.676;22.650;2022-12-29T01:04:11;3.48;76.78
72126;SHT31;59999;51.676;22.650;2022-12-29T01:06:38;3.44;76.82
72126;SHT31;59999;51.676;22.650;2022-12-29T01:09:05;3.46;76.38
72126;SHT31;59999;51.676;22.650;2022-12-29T01:11:49;3.47;76.46
72126;SHT31;59999;51.676;22.650;2022-12-29T01:14:16;3.41;77.29
72126;SHT31;59999;51.676;22.650;2022-12-29T01:16:42;3.43;76.44
72126;SHT31;59999;51.676;22.650;2022-12-29T01:19:08;3.38;76.88
72126;SHT31;59999;51.676;22.650;2022-12-29T01:21:33;3.34;76.72
72126;SHT31;59999;51.676;22.650;2022-12-29T01:23:59;3.41;76.70
72126;SHT31;59999;51.676;22.650;2022-12-29T01:26:25;3.33;77.03
72126;SHT31;59999;51.676;22.650;2022-12-29T01:28:51;3.33;76.93
72126;SHT31;59999;51.676;22.650;2022-12-29T01:31:17;3.27;76.58
72126;SHT31;59999;51.676;22.650;2022-12-29T01:33:43;3.26;76.89
72126;SHT31;59999;51.676;22.650;2022-12-29T01:36:11;3.27;76.61
72126;SHT31;59999;51.676;22.650;2022-12-29T01:38:38;3.27;76.48
72126;SHT31;59999;51.676;22.650;2022-12-29T01:41:05;3.31;76.63
72126;SHT31;59999;51.676;22.650;2022-12-29T01:43:42;3.28;76.17
72126;SHT31;59999;51.676;22.650;2022-12-29T01:51:25;3.24;76.43
72126;SHT31;59999;51.676;22.650;2022-12-29T01:53:53;3.22;76.62
72126;SHT31;59999;51.676;22.650;2022-12-29T01:56:21;3.24;76.75
72126;SHT31;59999;51.676;22.650;2022-12-29T01:58:49;3.26;76.29
72126;SHT31;59999;51.676;22.650;2022-12-29T02:01:19;3.24;76.65
72126;SHT31;59999;51.676;22.650;2022-12-29T02:03:45;3.26;76.04
72126;SHT31;59999;51.676;22.650;2022-12-29T02:06:17;3.22;76.67
72126;SHT31;59999;51.676;22.650;2022-12-29T02:08:46;3.22;76.39
72126;SHT31;59999;51.676;22.650;2022-12-29T02:11:12;3.16;76.27
72126;SHT31;59999;51.676;22.650;2022-12-29T02:13:38;3.16;77.30
72126;SHT31;59999;51.676;22.650;2022-12-29T02:21:59;3.15;76.60
72126;SHT31;59999;51.676;22.650;2022-12-29T02:41:26;3.02;77.26
72126;SHT31;59999;51.676;22.650;2022-12-29T02:49:15;3.00;76.88
72126;SHT31;59999;51.676;22.650;2022-12-29T02:51:58;2.97;76.77
72126;SHT31;59999;51.676;22.650;2022-12-29T02:54:26;2.95;77.21
72126;SHT31;59999;51.676;22.650;2022-12-29T02:59:44;2.93;77.00
72126;SHT31;59999;51.676;22.650;2022-12-29T03:11:00;2.89;77.16
72126;SHT31;59999;51.676;22.650;2022-12-29T03:13:47;2.88;77.16
72126;SHT31;59999;51.676;22.650;2022-12-29T03:16:44;2.91;77.14
72126;SHT31;59999;51.676;22.650;2022-12-29T03:19:23;2.89;77.12
72126;SHT31;59999;51.676;22.650;2022-12-29T03:22:03;2.91;76.91
72126;SHT31;59999;51.676;22.650;2022-12-29T03:24:51;2.89;77.04
72126;SHT31;59999;51.676;22.650;2022-12-29T03:27:21;2.88;77.00
72126;SHT31;59999;51.676;22.650;2022-12-29T03:29:51;2.93;76.90
72126;SHT31;59999;51.676;22.650;2022-12-29T03:32:21;2.92;76.95
72126;SHT31;59999;51.676;22.650;2022-12-29T03:34:49;2.92;76.68
72126;SHT31;59999;51.676;22.650;2022-12-29T03:37:18;2.91;76.90
72126;SHT31;59999;51.676;22.650;2022-12-29T03:39:46;2.91;76.98
72126;SHT31;59999;51.676;22.650;2022-12-29T03:42:19;2.91;77.12
72126;SHT31;59999;51.676;22.650;2022-12-29T03:44:46;2.91;77.08
72126;SHT31;59999;51.676;22.650;2022-12-29T03:47:13;2.95;76.58
72126;SHT31;59999;51.676;22.650;2022-12-29T03:49:40;2.97;76.51
72126;SHT31;59999;51.676;22.650;2022-12-29T03:52:06;2.99;76.88
72126;SHT31;59999;51.676;22.650;2022-12-29T03:54:32;2.97;77.25
72126;SHT31;59999;51.676;22.650;2022-12-29T03:56:58;2.96;76.77
72126;SHT31;59999;51.676;22.650;2022-12-29T03:59:24;2.99;76.56
72126;SHT31;59999;51.676;22.650;2022-12-29T04:01:50;2.99;77.30
72126;SHT31;59999;51.676;22.650;2022-12-29T04:04:15;2.96;76.81
72126;SHT31;59999;51.676;22.650;2022-12-29T04:06:41;2.96;77.18
72126;SHT31;59999;51.676;22.650;2022-12-29T04:09:09;2.95;77.16
72126;SHT31;59999;51.676;22.650;2022-12-29T04:11:35;2.92;77.21
72126;SHT31;59999;51.676;22.650;2022-12-29T04:14:01;2.93;77.27
72126;SHT31;59999;51.676;22.650;2022-12-29T04:16:26;2.93;77.16
72126;SHT31;59999;51.676;22.650;2022-12-29T04:18:52;2.88;77.77
72126;SHT31;59999;51.676;22.650;2022-12-29T04:21:18;2.89;77.71
72126;SHT31;59999;51.676;22.650;2022-12-29T04:23:44;2.88;77.48
72126;SHT31;59999;51.676;22.650;2022-12-29T04:26:10;2.86;77.51
72126;SHT31;59999;51.676;22.650;2022-12-29T04:28:36;2.85;77.31
72126;SHT31;59999;51.676;22.650;2022-12-29T04:31:03;2.85;77.63
72126;SHT31;59999;51.676;22.650;2022-12-29T04:33:29;2.89;77.10
72126;SHT31;59999;51.676;22.650;2022-12-29T04:35:55;2.88;77.37
72126;SHT31;59999;51.676;22.650;2022-12-29T04:38:22;2.91;77.42
72126;SHT31;59999;51.676;22.650;2022-12-29T04:40:49;2.95;76.63
72126;SHT31;59999;51.676;22.650;2022-12-29T04:43:16;2.96;77.07
72126;SHT31;59999;51.676;22.650;2022-12-29T04:45:47;2.93;77.13
72126;SHT31;59999;51.676;22.650;2022-12-29T04:48:14;2.92;77.31
72126;SHT31;59999;51.676;22.650;2022-12-29T04:50:40;2.95;77.39
72126;SHT31;59999;51.676;22.650;2022-12-29T04:53:07;2.93;77.40
72126;SHT31;59999;51.676;22.650;2022-12-29T04:55:33;2.97;77.15
72126;SHT31;59999;51.676;22.650;2022-12-29T04:57:59;2.97;77.32
72126;SHT31;59999;51.676;22.650;2022-12-29T05:00:24;2.95;77.38
72126;SHT31;59999;51.676;22.650;2022-12-29T05:02:50;2.96;77.00
72126;SHT31;59999;51.676;22.650;2022-12-29T05:05:17;2.97;77.20
72126;SHT31;59999;51.676;22.650;2022-12-29T05:07:43;3.00;76.88
72126;SHT31;59999;51.676;22.650;2022-12-29T05:10:09;3.00;76.53
72126;SHT31;59999;51.676;22.650;2022-12-29T05:12:37;3.05;77.23
72126;SHT31;59999;51.676;22.650;2022-12-29T05:15:04;3.06;77.56
72126;SHT31;59999;51.676;22.650;2022-12-29T05:17:30;3.02;77.54
72126;SHT31;59999;51.676;22.650;2022-12-29T05:19:56;2.99;77.87
72126;SHT31;59999;51.676;22.650;2022-12-29T05:22:23;2.96;78.34
72126;SHT31;59999;51.676;22.650;2022-12-29T05:24:48;2.92;79.69
72126;SHT31;59999;51.676;22.650;2022-12-29T05:27:14;2.86;79.34
72126;SHT31;59999;51.676;22.650;2022-12-29T05:29:40;2.81;79.65
72126;SHT31;59999;51.676;22.650;2022-12-29T05:32:06;2.76;80.06
72126;SHT31;59999;51.676;22.650;2022-12-29T05:34:32;2.69;79.56
72126;SHT31;59999;51.676;22.650;2022-12-29T05:36:58;2.68;79.77
72126;SHT31;59999;51.676;22.650;2022-12-29T05:39:23;2.64;80.26
72126;SHT31;59999;51.676;22.650;2022-12-29T05:41:49;2.64;80.26
72126;SHT31;59999;51.676;22.650;2022-12-29T05:44:15;2.59;80.98
72126;SHT31;59999;51.676;22.650;2022-12-29T05:46:41;2.55;80.82
72126;SHT31;59999;51.676;22.650;2022-12-29T05:49:07;2.52;80.99
72126;SHT31;59999;51.676;22.650;2022-12-29T05:51:33;2.47;80.55
72126;SHT31;59999;51.676;22.650;2022-12-29T05:53:58;2.51;80.94
72126;SHT31;59999;51.676;22.650;2022-12-29T05:56:24;2.49;81.08
72126;SHT31;59999;51.676;22.650;2022-12-29T05:58:50;2.47;81.38
72126;SHT31;59999;51.676;22.650;2022-12-29T06:01:16;2.44;81.35
72126;SHT31;59999;51.676;22.650;2022-12-29T06:03:42;2.45;81.46
72126;SHT31;59999;51.676;22.650;2022-12-29T06:06:08;2.36;81.80
72126;SHT31;59999;51.676;22.650;2022-12-29T06:08:34;2.38;81.63
72126;SHT31;59999;51.676;22.650;2022-12-29T06:11:00;2.41;81.12
72126;SHT31;59999;51.676;22.650;2022-12-29T06:13:26;2.38;81.48
72126;SHT31;59999;51.676;22.650;2022-12-29T06:15:53;2.36;81.84
72126;SHT31;59999;51.676;22.650;2022-12-29T06:18:18;2.38;81.71
72126;SHT31;59999;51.676;22.650;2022-12-29T06:20:44;2.37;81.68
72126;SHT31;59999;51.676;22.650;2022-12-29T06:23:10;2.38;81.98
72126;SHT31;59999;51.676;22.650;2022-12-29T06:25:38;2.38;81.70
72126;SHT31;59999;51.676;22.650;2022-12-29T06:28:04;2.40;81.38
72126;SHT31;59999;51.676;22.650;2022-12-29T06:30:33;2.40;81.79
72126;SHT31;59999;51.676;22.650;2022-12-29T06:32:59;2.41;81.25
72126;SHT31;59999;51.676;22.650;2022-12-29T06:35:25;2.42;80.97
72126;SHT31;59999;51.676;22.650;2022-12-29T06:37:51;2.44;80.86
72126;SHT31;59999;51.676;22.650;2022-12-29T06:40:17;2.52;80.36
72126;SHT31;59999;51.676;22.650;2022-12-29T06:42:43;2.58;79.91
72126;SHT31;59999;51.676;22.650;2022-12-29T06:45:09;2.64;79.64
72126;SHT31;59999;51.676;22.650;2022-12-29T06:47:35;2.62;79.20
72126;SHT31;59999;51.676;22.650;2022-12-29T06:50:01;2.65;79.11
72126;SHT31;59999;51.676;22.650;2022-12-29T06:52:27;2.66;78.80
72126;SHT31;59999;51.676;22.650;2022-12-29T06:54:54;2.69;78.70
72126;SHT31;59999;51.676;22.650;2022-12-29T06:57:21;2.68;78.89
72126;SHT31;59999;51.676;22.650;2022-12-29T06:59:47;2.71;78.33
72126;SHT31;59999;51.676;22.650;2022-12-29T07:02:13;2.74;77.96
72126;SHT31;59999;51.676;22.650;2022-12-29T07:04:44;2.74;78.41
72126;SHT31;59999;51.676;22.650;2022-12-29T07:07:09;2.79;77.63
72126;SHT31;59999;51.676;22.650;2022-12-29T07:09:35;2.78;77.23
72126;SHT31;59999;51.676;22.650;2022-12-29T07:12:01;2.85;77.10
72126;SHT31;59999;51.676;22.650;2022-12-29T07:14:27;2.86;77.59
72126;SHT31;59999;51.676;22.650;2022-12-29T07:16:52;2.88;77.29
72126;SHT31;59999;51.676;22.650;2022-12-29T07:19:18;2.89;76.91
72126;SHT31;59999;51.676;22.650;2022-12-29T07:21:44;2.89;77.04
72126;SHT31;59999;51.676;22.650;2022-12-29T07:24:10;2.95;76.24
72126;SHT31;59999;51.676;22.650;2022-12-29T07:26:36;2.93;76.35
72126;SHT31;59999;51.676;22.650;2022-12-29T07:29:03;2.97;76.93
72126;SHT31;59999;51.676;22.650;2022-12-29T07:31:29;2.96;76.04
72126;SHT31;59999;51.676;22.650;2022-12-29T07:33:55;2.99;75.72
72126;SHT31;59999;51.676;22.650;2022-12-29T07:36:21;3.00;75.91
72126;SHT31;59999;51.676;22.650;2022-12-29T07:38:47;2.96;75.72
72126;SHT31;59999;51.676;22.650;2022-12-29T07:41:13;2.99;75.38
72126;SHT31;59999;51.676;22.650;2022-12-29T07:43:39;2.99;75.39
72126;SHT31;59999;51.676;22.650;2022-12-29T07:46:05;3.02;74.96
72126;SHT31;59999;51.676;22.650;2022-12-29T07:48:32;3.03;74.85
72126;SHT31;59999;51.676;22.650;2022-12-29T07:51:01;3.13;74.57
72126;SHT31;59999;51.676;22.650;2022-12-29T07:53:27;3.12;74.52
72126;SHT31;59999;51.676;22.650;2022-12-29T07:55:52;3.17;74.38
72126;SHT31;59999;51.676;22.650;2022-12-29T07:58:18;3.31;73.49
72126;SHT31;59999;51.676;22.650;2022-12-29T08:00:44;3.31;73.52
72126;SHT31;59999;51.676;22.650;2022-12-29T08:03:10;3.41;72.95
72126;SHT31;59999;51.676;22.650;2022-12-29T08:05:36;3.50;73.33
72126;SHT31;59999;51.676;22.650;2022-12-29T08:08:02;3.48;74.52
72126;SHT31;59999;51.676;22.650;2022-12-29T08:10:27;3.53;72.59
72126;SHT31;59999;51.676;22.650;2022-12-29T08:12:53;3.63;72.63
72126;SHT31;59999;51.676;22.650;2022-12-29T08:15:19;3.65;73.10
72126;SHT31;59999;51.676;22.650;2022-12-29T08:17:45;3.67;72.87
72126;SHT31;59999;51.676;22.650;2022-12-29T08:20:11;3.74;71.87
72126;SHT31;59999;51.676;22.650;2022-12-29T08:22:37;3.77;72.64
72126;SHT31;59999;51.676;22.650;2022-12-29T08:25:03;3.79;72.26
72126;SHT31;59999;51.676;22.650;2022-12-29T08:27:29;3.77;72.05
72126;SHT31;59999;51.676;22.650;2022-12-29T08:29:55;3.79;72.30
72126;SHT31;59999;51.676;22.650;2022-12-29T08:32:21;3.88;71.06
72126;SHT31;59999;51.676;22.650;2022-12-29T08:34:47;3.96;70.79
72126;SHT31;59999;51.676;22.650;2022-12-29T08:37:12;3.98;71.93
72126;SHT31;59999;51.676;22.650;2022-12-29T08:39:38;4.01;71.02
72126;SHT31;59999;51.676;22.650;2022-12-29T08:42:04;4.02;70.32
72126;SHT31;59999;51.676;22.650;2022-12-29T08:44:30;4.06;71.57
72126;SHT31;59999;51.676;22.650;2022-12-29T08:46:56;4.10;70.92
72126;SHT31;59999;51.676;22.650;2022-12-29T08:49:21;4.10;70.38
72126;SHT31;59999;51.676;22.650;2022-12-29T08:51:47;4.13;70.77
72126;SHT31;59999;51.676;22.650;2022-12-29T08:54:13;4.15;71.81
72126;SHT31;59999;51.676;22.650;2022-12-29T08:56:39;4.16;70.28
72126;SHT31;59999;51.676;22.650;2022-12-29T08:59:04;4.17;69.76
72126;SHT31;59999;51.676;22.650;2022-12-29T09:01:30;4.24;70.44
72126;SHT31;59999;51.676;22.650;2022-12-29T09:03:56;4.32;69.43
72126;SHT31;59999;51.676;22.650;2022-12-29T09:06:22;4.33;70.46
72126;SHT31;59999;51.676;22.650;2022-12-29T09:08:48;4.34;70.03
72126;SHT31;59999;51.676;22.650;2022-12-29T09:11:17;4.36;69.97
72126;SHT31;59999;51.676;22.650;2022-12-29T09:13:44;4.46;70.39
72126;SHT31;59999;51.676;22.650;2022-12-29T09:16:10;4.50;69.61
72126;SHT31;59999;51.676;22.650;2022-12-29T09:18:36;4.53;69.88
72126;SHT31;59999;51.676;22.650;2022-12-29T09:21:04;4.60;69.92
72126;SHT31;59999;51.676;22.650;2022-12-29T09:23:31;4.67;68.64
72126;SHT31;59999;51.676;22.650;2022-12-29T09:25:57;4.75;68.88
72126;SHT31;59999;51.676;22.650;2022-12-29T09:28:23;4.87;69.01
72126;SHT31;59999;51.676;22.650;2022-12-29T09:30:49;4.95;68.99
72126;SHT31;59999;51.676;22.650;2022-12-29T09:33:15;5.04;67.48
72126;SHT31;59999;51.676;22.650;2022-12-29T09:35:50;5.11;68.25
72126;SHT31;59999;51.676;22.650;2022-12-29T09:38:16;5.23;68.47
72126;SHT31;59999;51.676;22.650;2022-12-29T09:40:45;5.26;67.50
72126;SHT31;59999;51.676;22.650;2022-12-29T09:48:43;5.22;67.59
72126;SHT31;59999;51.676;22.650;2022-12-29T09:51:19;5.22;67.34
72126;SHT31;59999;51.676;22.650;2022-12-29T09:53:53;5.19;67.42
72126;SHT31;59999;51.676;22.650;2022-12-29T09:56:23;5.18;67.04
72126;SHT31;59999;51.676;22.650;2022-12-29T09:58:55;5.16;67.56
72126;SHT31;59999;51.676;22.650;2022-12-29T10:01:27;5.19;67.24
72126;SHT31;59999;51.676;22.650;2022-12-29T10:03:57;5.21;67.21
72126;SHT31;59999;51.676;22.650;2022-12-29T10:12:47;5.25;67.83
72126;SHT31;59999;51.676;22.650;2022-12-29T10:15:18;5.29;67.75
72126;SHT31;59999;51.676;22.650;2022-12-29T10:20:58;5.32;66.91
72126;SHT31;59999;51.676;22.650;2022-12-29T10:23:47;5.32;67.72
72126;SHT31;59999;51.676;22.650;2022-12-29T10:26:17;5.35;68.93
72126;SHT31;59999;51.676;22.650;2022-12-29T10:28:56;5.44;68.08
72126;SHT31;59999;51.676;22.650;2022-12-29T10:31:28;5.49;67.12
72126;SHT31;59999;51.676;22.650;2022-12-29T10:34:02;5.51;67.61
72126;SHT31;59999;51.676;22.650;2022-12-29T10:36:40;5.53;67.05
72126;SHT31;59999;51.676;22.650;2022-12-29T10:39:19;5.59;66.28
72126;SHT31;59999;51.676;22.650;2022-12-29T10:42:02;5.67;66.74
72126;SHT31;59999;51.676;22.650;2022-12-29T10:44:31;5.75;66.27
72126;SHT31;59999;51.676;22.650;2022-12-29T10:46:59;5.81;65.50
72126;SHT31;59999;51.676;22.650;2022-12-29T10:49:28;5.84;66.28
72126;SHT31;59999;51.676;22.650;2022-12-29T10:51:57;5.83;65.76
72126;SHT31;59999;51.676;22.650;2022-12-29T10:54:38;5.84;65.52
72126;SHT31;59999;51.676;22.650;2022-12-29T10:57:16;5.88;65.85
72126;SHT31;59999;51.676;22.650;2022-12-29T10:59:44;5.91;65.22
72126;SHT31;59999;51.676;22.650;2022-12-29T11:07:20;5.98;65.66
72126;SHT31;59999;51.676;22.650;2022-12-29T11:09:46;6.05;69.38
72126;SHT31;59999;51.676;22.650;2022-12-29T11:12:28;6.12;68.94
72126;SHT31;59999;51.676;22.650;2022-12-29T11:18:08;6.30;67.63
72126;SHT31;59999;51.676;22.650;2022-12-29T11:20:42;6.33;69.04
72126;SHT31;59999;51.676;22.650;2022-12-29T11:23:38;6.32;70.43
72126;SHT31;59999;51.676;22.650;2022-12-29T11:26:17;6.32;67.86
72126;SHT31;59999;51.676;22.650;2022-12-29T11:28:46;6.32;69.28
72126;SHT31;59999;51.676;22.650;2022-12-29T11:31:17;6.38;67.79
72126;SHT31;59999;51.676;22.650;2022-12-29T11:33:43;6.45;68.91
72126;SHT31;59999;51.676;22.650;2022-12-29T11:36:17;6.50;68.70
72126;SHT31;59999;51.676;22.650;2022-12-29T11:38:49;6.56;68.11
72126;SHT31;59999;51.676;22.650;2022-12-29T11:41:34;6.65;68.57
72126;SHT31;59999;51.676;22.650;2022-12-29T11:44:02;6.75;67.14
72126;SHT31;59999;51.676;22.650;2022-12-29T11:46:34;6.75;67.97
72126;SHT31;59999;51.676;22.650;2022-12-29T11:49:02;6.75;68.26
72126;SHT31;59999;51.676;22.650;2022-12-29T11:51:44;6.79;67.79
72126;SHT31;59999;51.676;22.650;2022-12-29T11:54:32;6.84;67.30
72126;SHT31;59999;51.676;22.650;2022-12-29T11:57:15;6.84;67.21
72126;SHT31;59999;51.676;22.650;2022-12-29T11:59:43;6.88;68.65
72126;SHT31;59999;51.676;22.650;2022-12-29T12:02:36;6.97;67.82
72126;SHT31;59999;51.676;22.650;2022-12-29T12:07:45;7.03;67.07
72126;SHT31;59999;51.676;22.650;2022-12-29T12:10:29;6.93;67.17
72126;SHT31;59999;51.676;22.650;2022-12-29T12:13:12;6.86;67.00
72126;SHT31;59999;51.676;22.650;2022-12-29T12:15:46;6.84;67.66
72126;SHT31;59999;51.676;22.650;2022-12-29T12:18:26;6.86;67.49
72126;SHT31;59999;51.676;22.650;2022-12-29T12:20:57;6.96;67.60
72126;SHT31;59999;51.676;22.650;2022-12-29T12:23:38;7.11;66.41
72126;SHT31;59999;51.676;22.650;2022-12-29T12:26:21;7.25;67.41
72126;SHT31;59999;51.676;22.650;2022-12-29T12:29:04;7.32;66.20
72126;SHT31;59999;51.676;22.650;2022-12-29T12:31:54;7.36;65.51
72126;SHT31;59999;51.676;22.650;2022-12-29T12:34:29;7.38;66.45
72126;SHT31;59999;51.676;22.650;2022-12-29T12:51:02;7.17;67.58
72126;SHT31;59999;51.676;22.650;2022-12-29T12:53:36;7.15;67.30
72126;SHT31;59999;51.676;22.650;2022-12-29T13:04:18;7.21;67.43
72126;SHT31;59999;51.676;22.650;2022-12-29T13:07:17;7.18;68.85
72126;SHT31;59999;51.676;22.650;2022-12-29T13:10:00;7.19;68.23
72126;SHT31;59999;51.676;22.650;2022-12-29T13:12:40;7.21;68.27
72126;SHT31;59999;51.676;22.650;2022-12-29T13:20:39;7.22;68.12
72126;SHT31;59999;51.676;22.650;2022-12-29T13:26:28;7.32;67.32
72126;SHT31;59999;51.676;22.650;2022-12-29T13:28:58;7.29;69.05
72126;SHT31;59999;51.676;22.650;2022-12-29T13:37:09;7.32;68.64
72126;SHT31;59999;51.676;22.650;2022-12-29T13:39:39;7.34;67.87
72126;SHT31;59999;51.676;22.650;2022-12-29T13:42:07;7.41;67.33
72126;SHT31;59999;51.676;22.650;2022-12-29T13:44:46;7.42;67.77
72126;SHT31;59999;51.676;22.650;2022-12-29T13:50:02;7.42;67.10
72126;SHT31;59999;51.676;22.650;2022-12-29T13:55:26;7.35;68.39
72126;SHT31;59999;51.676;22.650;2022-12-29T13:58:07;7.28;67.78
72126;SHT31;59999;51.676;22.650;2022-12-29T14:03:53;7.18;68.86
72126;SHT31;59999;51.676;22.650;2022-12-29T14:08:52;7.11;68.39
72126;SHT31;59999;51.676;22.650;2022-12-29T14:11:22;7.01;68.56
72126;SHT31;59999;51.676;22.650;2022-12-29T14:13:50;6.96;68.77
72126;SHT31;59999;51.676;22.650;2022-12-29T14:16:29;6.86;69.55
72126;SHT31;59999;51.676;22.650;2022-12-29T14:19:10;6.76;69.97
72126;SHT31;59999;51.676;22.650;2022-12-29T14:21:37;6.73;69.61
72126;SHT31;59999;51.676;22.650;2022-12-29T14:34:47;6.52;71.20
72126;SHT31;59999;51.676;22.650;2022-12-29T14:37:30;6.50;71.34
72126;SHT31;59999;51.676;22.650;2022-12-29T14:42:32;6.40;71.60
72126;SHT31;59999;51.676;22.650;2022-12-29T14:45:02;6.29;72.40
72126;SHT31;59999;51.676;22.650;2022-12-29T14:50:24;6.05;72.71
72126;SHT31;59999;51.676;22.650;2022-12-29T14:52:58;6.04;72.94
72126;SHT31;59999;51.676;22.650;2022-12-29T14:58:18;6.11;72.94
72126;SHT31;59999;51.676;22.650;2022-12-29T15:00:46;5.99;72.84
72126;SHT31;59999;51.676;22.650;2022-12-29T15:03:49;5.99;72.99
72126;SHT31;59999;51.676;22.650;2022-12-29T15:06:16;5.98;72.93
72126;SHT31;59999;51.676;22.650;2022-12-29T15:08:58;5.97;72.89
72126;SHT31;59999;51.676;22.650;2022-12-29T15:11:59;6.04;72.94
72126;SHT31;59999;51.676;22.650;2022-12-29T15:14:38;6.05;73.16
72126;SHT31;59999;51.676;22.650;2022-12-29T15:17:24;6.08;72.53
72126;SHT31;59999;51.676;22.650;2022-12-29T15:19:50;6.12;72.46
72126;SHT31;59999;51.676;22.650;2022-12-29T15:22:16;6.12;72.59
72126;SHT31;59999;51.676;22.650;2022-12-29T15:24:43;6.08;72.90
72126;SHT31;59999;51.676;22.650;2022-12-29T15:27:18;6.02;72.53
72126;SHT31;59999;51.676;22.650;2022-12-29T15:29:46;5.99;72.67
72126;SHT31;59999;51.676;22.650;2022-12-29T15:32:42;6.01;72.89
72126;SHT31;59999;51.676;22.650;2022-12-29T15:35:29;6.04;72.46
72126;SHT31;59999;51.676;22.650;2022-12-29T15:37:55;6.05;73.06
72126;SHT31;59999;51.676;22.650;2022-12-29T15:45:26;6.08;72.67
72126;SHT31;59999;51.676;22.650;2022-12-29T15:47:55;6.04;73.46
72126;SHT31;59999;51.676;22.650;2022-12-29T15:50:29;6.05;72.95
72126;SHT31;59999;51.676;22.650;2022-12-29T15:52:56;6.04;73.41
72126;SHT31;59999;51.676;22.650;2022-12-29T15:55:37;6.05;73.12
72126;SHT31;59999;51.676;22.650;2022-12-29T15:58:05;6.09;73.28
72126;SHT31;59999;51.676;22.650;2022-12-29T16:00:47;6.05;73.12
72126;SHT31;59999;51.676;22.650;2022-12-29T16:03:13;6.04;73.05
72126;SHT31;59999;51.676;22.650;2022-12-29T16:05:40;6.09;72.70
72126;SHT31;59999;51.676;22.650;2022-12-29T16:10:55;6.09;73.07
72126;SHT31;59999;51.676;22.650;2022-12-29T16:13:34;6.09;73.20
72126;SHT31;59999;51.676;22.650;2022-12-29T16:16:20;6.09;72.95
72126;SHT31;59999;51.676;22.650;2022-12-29T16:18:46;6.08;73.12
72126;SHT31;59999;51.676;22.650;2022-12-29T16:21:25;6.04;73.75
72126;SHT31;59999;51.676;22.650;2022-12-29T16:23:54;6.02;73.39
72126;SHT31;59999;51.676;22.650;2022-12-29T16:26:21;6.04;73.56
72126;SHT31;59999;51.676;22.650;2022-12-29T16:28:51;6.08;73.06
72126;SHT31;59999;51.676;22.650;2022-12-29T16:31:25;6.09;72.61
72126;SHT31;59999;51.676;22.650;2022-12-29T16:33:57;6.12;72.66
72126;SHT31;59999;51.676;22.650;2022-12-29T16:36:33;6.18;72.63
72126;SHT31;59999;51.676;22.650;2022-12-29T16:39:19;6.24;72.14
72126;SHT31;59999;51.676;22.650;2022-12-29T16:41:47;6.22;72.62
72126;SHT31;59999;51.676;22.650;2022-12-29T16:44:18;6.33;71.90
72126;SHT31;59999;51.676;22.650;2022-12-29T16:49:43;6.32;72.36
72126;SHT31;59999;51.676;22.650;2022-12-29T16:52:25;6.32;72.28
72126;SHT31;59999;51.676;22.650;2022-12-29T16:54:58;6.33;72.31
72126;SHT31;59999;51.676;22.650;2022-12-29T16:57:32;6.33;72.05
72126;SHT31;59999;51.676;22.650;2022-12-29T17:00:01;6.33;72.28
72126;SHT31;59999;51.676;22.650;2022-12-29T17:02:29;6.30;72.25
72126;SHT31;59999;51.676;22.650;2022-12-29T17:04:55;6.24;72.29
72126;SHT31;59999;51.676;22.650;2022-12-29T17:07:24;6.15;72.44
72126;SHT31;59999;51.676;22.650;2022-12-29T17:09:50;6.07;72.54
72126;SHT31;59999;51.676;22.650;2022-12-29T17:12:29;5.95;73.30
72126;SHT31;59999;51.676;22.650;2022-12-29T17:15:01;5.88;73.29
72126;SHT31;59999;51.676;22.650;2022-12-29T17:17:41;5.81;73.77
72126;SHT31;59999;51.676;22.650;2022-12-29T17:20:25;5.87;73.15
72126;SHT31;59999;51.676;22.650;2022-12-29T17:22:52;5.86;73.30
72126;SHT31;59999;51.676;22.650;2022-12-29T17:25:25;5.88;73.83
72126;SHT31;59999;51.676;22.650;2022-12-29T17:27:57;5.83;73.96
72126;SHT31;59999;51.676;22.650;2022-12-29T17:30:25;5.80;73.88
72126;SHT31;59999;51.676;22.650;2022-12-29T17:33:03;5.74;74.65
72126;SHT31;59999;51.676;22.650;2022-12-29T17:35:29;5.69;74.21
72126;SHT31;59999;51.676;22.650;2022-12-29T17:37:55;5.61;75.05
72126;SHT31;59999;51.676;22.650;2022-12-29T17:40:27;5.54;74.77
72126;SHT31;59999;51.676;22.650;2022-12-29T17:42:55;5.49;74.62
72126;SHT31;59999;51.676;22.650;2022-12-29T17:45:27;5.46;75.05
72126;SHT31;59999;51.676;22.650;2022-12-29T17:47:53;5.38;75.04
72126;SHT31;59999;51.676;22.650;2022-12-29T17:50:23;5.35;75.06
72126;SHT31;59999;51.676;22.650;2022-12-29T17:52:58;5.32;75.33
72126;SHT31;59999;51.676;22.650;2022-12-29T17:55:24;5.32;75.05
72126;SHT31;59999;51.676;22.650;2022-12-29T17:57:51;5.32;75.25
72126;SHT31;59999;51.676;22.650;2022-12-29T18:00:19;5.39;74.87
72126;SHT31;59999;51.676;22.650;2022-12-29T18:02:46;5.43;74.44
72126;SHT31;59999;51.676;22.650;2022-12-29T18:05:21;5.38;75.00
72126;SHT31;59999;51.676;22.650;2022-12-29T18:07:50;5.44;74.60
72126;SHT31;59999;51.676;22.650;2022-12-29T18:10:16;5.38;75.20
72126;SHT31;59999;51.676;22.650;2022-12-29T18:12:43;5.33;75.18
72126;SHT31;59999;51.676;22.650;2022-12-29T18:15:21;5.33;75.21
72126;SHT31;59999;51.676;22.650;2022-12-29T18:17:47;5.29;75.10
72126;SHT31;59999;51.676;22.650;2022-12-29T18:20:14;5.28;74.99
72126;SHT31;59999;51.676;22.650;2022-12-29T18:22:40;5.32;74.85